Time;durP1;ratioP1;P1;durP2;ratioP2;P2;SDS_P1;SDS_P2;PMS_P1;PMS_P2;Temp;Humidity;BMP_temperature;BMP_pressure;BME280_temperature;BME280_humidity;BME280_pressure;Samples;Min_cycle;Max_cycle;Signal;HPM_P1;HPM_P2
2021/05/30 00:02:01;;;;;;;3.67;2.58;;;11.10;69.10;;;9.62;65.44;96712.47;5024412;28;20042;-64
2021/05/30 00:04:26;;;;;;;4.28;2.83;;;11.00;69.30;;;9.61;65.46;96716.09;5004824;28;20068;-64
2021/05/30 00:06:52;;;;;;;2.97;2.28;;;11.00;69.30;;;9.61;66.04;96713.47;5003922;28;20042;-64
2021/05/30 00:09:18;;;;;;;3.80;2.70;;;11.10;69.10;;;9.60;65.91;96718.88;4983833;28;20457;-64
2021/05/30 00:11:44;;;;;;;2.88;2.42;;;11.00;69.30;;;9.59;65.28;96722.50;4982921;28;20501;-64
2021/05/30 00:14:09;;;;;;;3.58;2.30;;;11.00;69.40;;;9.57;66.27;96720.03;4979710;28;20057;-65
2021/05/30 00:16:35;;;;;;;3.33;2.38;;;11.00;69.10;;;9.53;65.88;96718.75;4982019;28;20046;-64
2021/05/30 00:19:03;;;;;;;3.67;2.35;;;11.00;68.80;;;9.49;66.06;96709.53;4976162;28;20045;-64
2021/05/30 00:21:29;;;;;;;2.95;2.28;;;10.90;68.40;;;9.46;65.47;96720.38;4988633;28;20104;-64
2021/05/30 00:23:57;;;;;;;6.35;2.45;;;10.90;68.70;;;9.45;66.31;96713.50;4989820;28;20061;-64
2021/05/30 00:26:22;;;;;;;3.80;2.58;;;10.90;68.60;;;9.43;65.91;96711.03;4992092;28;20546;-64
2021/05/30 00:28:48;;;;;;;4.20;2.50;;;10.90;68.50;;;9.43;65.96;96715.47;4990463;28;20086;-64
2021/05/30 00:31:14;;;;;;;3.08;2.50;;;10.80;68.80;;;9.43;66.22;96710.22;4970916;28;20069;-64
2021/05/30 00:33:40;;;;;;;3.70;2.75;;;10.90;69.00;;;9.42;65.78;96716.44;4998417;28;20034;-64
2021/05/30 00:36:07;;;;;;;3.35;2.70;;;10.80;69.20;;;9.40;65.87;96713.16;4993293;28;20039;-64
2021/05/30 00:38:32;;;;;;;4.65;2.42;;;10.80;69.30;;;9.40;66.01;96710.53;4987733;28;20521;-64
2021/05/30 00:40:58;;;;;;;4.93;2.60;;;10.80;69.40;;;9.39;66.08;96707.09;4962759;28;20030;-64
2021/05/30 00:43:25;;;;;;;3.20;2.53;;;10.70;69.50;;;9.36;66.36;96701.38;5012540;28;20044;-64
2021/05/30 00:45:50;;;;;;;3.60;2.58;;;10.70;69.50;;;9.32;66.44;96707.94;4986515;28;20030;-64
2021/05/30 00:48:16;;;;;;;3.40;2.38;;;10.70;69.60;;;9.27;66.51;96707.59;4974505;28;20455;-64
2021/05/30 00:50:42;;;;;;;3.28;2.70;;;10.60;69.80;;;9.25;66.85;96704.31;4983070;28;20458;-64
2021/05/30 00:53:09;;;;;;;4.80;2.60;;;10.50;69.90;;;9.20;66.38;96703.03;4991419;28;20180;-64
2021/05/30 00:55:36;;;;;;;3.08;2.50;;;10.50;70.00;;;9.14;66.47;96701.06;4991528;28;20029;-64
2021/05/30 00:58:01;;;;;;;4.13;2.75;;;10.50;70.10;;;9.10;66.71;96698.94;4965487;28;20092;-64
2021/05/30 01:00:27;;;;;;;4.28;2.90;;;10.60;70.30;;;9.07;66.69;96696.66;4987189;28;20414;-64
2021/05/30 01:02:53;;;;;;;4.80;2.92;;;10.50;70.20;;;9.05;67.15;96702.06;4976782;28;20058;-64
2021/05/30 01:05:19;;;;;;;3.58;2.67;;;10.50;70.10;;;9.04;67.24;96708.25;5000247;28;20049;-64
2021/05/30 01:07:48;;;;;;;4.55;3.15;;;10.50;70.20;;;9.02;67.06;96704.16;4988517;28;20038;-64
2021/05/30 01:10:28;;;;;;;5.82;2.60;;;10.40;70.40;;;9.02;68.94;96704.16;4992012;28;20040;-64
2021/05/30 01:12:54;;;;;;;3.22;2.58;;;10.40;70.50;;;8.97;67.09;96707.28;5011602;28;20448;-64
2021/05/30 01:15:19;;;;;;;3.53;2.75;;;10.40;70.50;;;8.94;67.52;96705.00;4968898;28;20038;-64
2021/05/30 01:17:47;;;;;;;3.50;2.85;;;10.30;70.60;;;8.93;67.19;96705.97;5002055;28;20041;-64
2021/05/30 01:20:16;;;;;;;3.53;2.58;;;10.30;70.90;;;8.90;68.36;96708.94;4987483;28;20035;-64
2021/05/30 01:22:43;;;;;;;6.13;2.80;;;10.30;71.00;;;8.86;67.53;96711.06;4963295;28;20030;-64
2021/05/30 01:25:10;;;;;;;4.47;2.97;;;10.30;71.10;;;8.83;67.95;96706.16;4964969;28;20490;-64
2021/05/30 01:27:37;;;;;;;3.30;2.65;;;10.20;71.40;;;8.79;67.95;96710.06;4973273;28;20572;-64
2021/05/30 01:30:05;;;;;;;4.70;2.95;;;10.20;71.50;;;8.77;68.66;96711.22;5000869;28;20052;-64
2021/05/30 01:32:31;;;;;;;3.95;2.55;;;10.20;71.50;;;8.74;68.66;96714.16;5008978;28;20120;-64
2021/05/30 01:34:57;;;;;;;3.17;2.47;;;10.20;71.60;;;8.73;68.53;96709.91;4988877;28;20122;-63
2021/05/30 01:37:23;;;;;;;3.47;2.40;;;10.10;71.70;;;8.69;68.33;96709.41;4986569;28;20093;-64
2021/05/30 01:39:49;;;;;;;3.50;2.58;;;10.10;71.80;;;8.67;68.76;96710.56;4982871;28;20077;-63
2021/05/30 01:42:14;;;;;;;3.08;2.63;;;10.10;72.10;;;8.63;68.88;96714.50;4962988;28;20038;-63
2021/05/30 01:44:40;;;;;;;3.63;2.78;;;10.10;72.40;;;8.58;68.62;96722.81;4988106;28;20026;-64
2021/05/30 01:47:06;;;;;;;3.85;2.92;;;10.00;72.50;;;8.54;69.24;96721.50;4989366;28;20073;-64
2021/05/30 01:49:32;;;;;;;4.82;2.80;;;9.90;72.80;;;8.51;68.74;96722.66;4981049;28;20141;-64
2021/05/30 01:51:58;;;;;;;4.88;3.10;;;9.80;73.20;;;8.46;69.12;96724.94;5006936;28;20064;-63
2021/05/30 01:54:26;;;;;;;3.75;2.67;;;9.80;73.40;;;8.42;69.52;96721.00;4999770;28;20058;-63
2021/05/30 01:56:56;;;;;;;4.15;3.10;;;9.80;73.50;;;8.39;69.46;96723.94;5013292;28;20033;-64
2021/05/30 01:59:22;;;;;;;3.25;2.50;;;9.80;73.30;;;8.37;69.64;96736.38;4964969;28;20547;-64
2021/05/30 02:01:53;;;;;;;3.83;2.97;;;9.80;73.50;;;8.33;71.16;96721.91;4992290;28;20041;-64
2021/05/30 02:04:19;;;;;;;;;;;9.70;73.80;;;8.28;71.88;96732.06;4972636;28;20030;-64
2021/05/30 02:06:45;;;;;;;3.80;3.05;;;9.70;73.90;;;8.23;69.60;96729.91;5003819;28;20548;-64
2021/05/30 02:09:11;;;;;;;4.63;2.90;;;9.60;74.00;;;8.19;70.07;96725.16;4991729;28;20050;-65
2021/05/30 02:11:39;;;;;;;6.45;3.20;;;9.60;74.20;;;8.16;71.33;96722.84;4993212;28;20038;-65
2021/05/30 02:14:05;;;;;;;4.30;3.13;;;9.60;74.40;;;8.13;70.82;96726.59;4979084;28;20042;-64
2021/05/30 02:16:31;;;;;;;4.05;3.17;;;9.60;74.40;;;8.11;70.42;96730.34;4985289;28;20117;-64
2021/05/30 02:18:57;;;;;;;4.65;3.33;;;9.60;74.30;;;8.06;70.90;96728.22;4993387;28;20865;-64
2021/05/30 02:21:23;;;;;;;4.35;3.10;;;9.50;74.70;;;8.03;71.21;96732.94;4994240;28;20089;-64
2021/05/30 02:23:49;;;;;;;3.72;3.30;;;9.40;74.80;;;8.01;71.27;96734.91;4992449;28;20661;-64
2021/05/30 02:26:14;;;;;;;6.63;3.50;;;9.50;74.90;;;8.01;70.99;96748.81;4988368;28;20049;-65
2021/05/30 02:28:40;;;;;;;4.82;3.90;;;9.50;74.50;;;8.02;70.88;96740.00;4976335;28;20074;-64
2021/05/30 02:31:06;;;;;;;5.43;4.20;;;9.60;74.40;;;8.01;71.65;96740.97;4979743;28;20097;-64
2021/05/30 02:33:32;;;;;;;4.18;3.70;;;9.50;74.40;;;7.97;71.66;96739.66;4978421;28;20081;-65
2021/05/30 02:35:57;;;;;;;14.18;3.85;;;9.50;74.40;;;7.96;71.93;96738.81;4980182;28;20037;-65
2021/05/30 02:38:23;;;;;;;4.38;3.88;;;9.50;74.60;;;7.96;71.65;96740.63;4989393;28;20030;-64
2021/05/30 02:40:49;;;;;;;5.70;3.50;;;9.50;74.50;;;7.94;71.27;96740.78;5005772;28;20498;-65
2021/05/30 02:43:15;;;;;;;4.75;3.83;;;9.50;74.50;;;7.93;71.39;96743.56;5000090;28;20486;-65
2021/05/30 02:45:40;;;;;;;4.80;3.72;;;9.40;74.50;;;7.91;71.58;96743.69;5003948;28;20465;-65
2021/05/30 02:48:06;;;;;;;7.55;4.70;;;9.40;74.50;;;7.92;72.00;96745.34;5044520;28;20183;-65
2021/05/30 02:50:32;;;;;;;5.63;4.30;;;9.40;74.50;;;7.89;71.76;96743.03;4988145;28;20048;-64
2021/05/30 02:52:58;;;;;;;5.60;4.18;;;9.40;74.20;;;7.88;71.81;96745.81;4994415;28;20566;-65
2021/05/30 02:55:23;;;;;;;6.18;4.05;;;9.40;74.30;;;7.88;72.03;96746.63;5008172;28;20406;-65
2021/05/30 02:57:49;;;;;;;4.63;3.75;;;9.40;74.30;;;7.86;71.61;96745.97;4991585;28;20609;-65
2021/05/30 03:00:16;;;;;;;5.22;4.07;;;9.30;74.10;;;7.80;71.33;96740.53;4974653;28;20043;-65
2021/05/30 03:02:42;;;;;;;4.82;4.22;;;9.30;73.90;;;7.78;71.52;96758.19;4983302;28;20026;-65
2021/05/30 03:05:09;;;;;;;4.30;3.90;;;9.30;73.80;;;7.78;72.08;96760.81;5009206;28;20034;-65
2021/05/30 03:07:35;;;;;;;6.20;4.30;;;9.30;73.90;;;7.74;71.44;96765.56;4999917;28;20039;-65
2021/05/30 03:10:00;;;;;;;5.20;4.18;;;9.10;74.10;;;7.71;71.27;96765.88;5007631;28;20465;-64
2021/05/30 03:12:26;;;;;;;6.18;4.22;;;9.10;74.30;;;7.65;71.43;96763.84;5003214;28;20112;-65
2021/05/30 03:14:52;;;;;;;5.72;4.45;;;9.10;74.30;;;7.58;71.37;96766.25;5017377;28;20048;-65
2021/05/30 03:17:18;;;;;;;5.78;4.38;;;9.10;74.40;;;7.56;71.92;96765.59;4991971;28;20506;-65
2021/05/30 03:19:43;;;;;;;5.25;4.30;;;9.00;74.60;;;7.55;71.92;96776.22;4988619;28;20064;-65
2021/05/30 03:22:09;;;;;;;5.78;4.18;;;9.00;74.70;;;7.55;72.54;96766.56;4989403;28;20037;-68
2021/05/30 03:24:36;;;;;;;5.93;4.43;;;9.10;74.70;;;7.55;71.82;96777.03;5008406;28;20432;-65
2021/05/30 03:27:01;;;;;;;4.80;4.30;;;9.00;74.80;;;7.55;72.47;96776.22;4978140;28;20065;-65
2021/05/30 03:29:27;;;;;;;5.25;4.50;;;9.10;74.60;;;7.55;72.15;96776.22;4994442;28;20057;-65
2021/05/30 03:31:53;;;;;;;4.80;4.30;;;9.10;74.50;;;7.52;71.93;96781.78;5015800;28;20034;-64
2021/05/30 03:34:19;;;;;;;5.75;3.95;;;9.00;74.60;;;7.49;71.92;96777.66;4990459;28;20061;-65
2021/05/30 03:36:48;;;;;;;6.20;4.28;;;9.00;74.80;;;7.46;72.14;96782.34;5007673;28;20046;-64
2021/05/30 03:39:14;;;;;;;5.10;3.80;;;9.00;75.00;;;7.46;72.78;96772.72;5001919;28;20042;-64
2021/05/30 03:41:41;;;;;;;4.63;4.07;;;9.00;75.00;;;7.44;72.09;96777.28;5009930;28;20042;-65
2021/05/30 03:44:07;;;;;;;5.35;4.15;;;9.00;74.80;;;7.42;73.04;96781.03;5011854;28;20485;-64
2021/05/30 03:46:34;;;;;;;5.43;4.30;;;9.00;74.80;;;7.40;72.48;96775.13;4992860;28;20498;-65
2021/05/30 03:48:59;;;;;;;4.47;3.83;;;8.90;74.80;;;7.38;72.80;96777.91;4988828;28;20077;-64
2021/05/30 03:51:25;;;;;;;4.85;3.85;;;9.00;74.80;;;7.40;73.03;96778.56;4999162;28;20034;-65
2021/05/30 03:53:51;;;;;;;4.43;3.83;;;9.00;74.80;;;7.42;73.09;96774.00;5023786;28;20033;-64
2021/05/30 03:56:17;;;;;;;4.97;4.13;;;9.00;74.90;;;7.41;72.70;96772.34;5012600;28;20108;-65
2021/05/30 03:58:42;;;;;;;5.28;3.97;;;9.00;75.10;;;7.45;73.03;96778.09;5012390;28;20205;-64
2021/05/30 04:01:08;;;;;;;6.68;4.40;;;9.00;75.10;;;7.45;73.21;96765.00;4989873;28;20034;-65
2021/05/30 04:03:34;;;;;;;4.18;3.78;;;9.10;75.00;;;7.46;73.20;96771.88;4997342;28;20052;-64
2021/05/30 04:06:00;;;;;;;6.05;3.83;;;9.10;75.20;;;7.44;73.42;96773.84;5013054;28;20605;-65
2021/05/30 04:08:25;;;;;;;4.63;3.85;;;9.10;75.00;;;7.47;73.18;96784.00;4999577;28;20038;-65
2021/05/30 04:10:51;;;;;;;4.78;4.03;;;9.10;75.10;;;7.50;72.85;96781.94;5028833;28;20068;-64
2021/05/30 04:13:17;;;;;;;4.25;3.80;;;9.10;75.20;;;7.53;73.74;96783.41;5005894;28;20038;-64
2021/05/30 04:15:43;;;;;;;5.43;3.88;;;9.20;75.30;;;7.57;73.33;96776.88;4999627;28;20065;-65
2021/05/30 04:18:09;;;;;;;4.18;3.78;;;9.20;75.50;;;7.58;73.76;96776.72;4973648;28;20042;-65
2021/05/30 04:20:34;;;;;;;4.65;4.13;;;9.20;75.80;;;7.60;73.06;96789.66;4998524;28;21284;-65
2021/05/30 04:23:00;;;;;;;4.30;3.90;;;9.10;75.80;;;7.61;73.67;96784.28;4991470;28;20081;-64
2021/05/30 04:25:26;;;;;;;7.88;4.20;;;9.20;75.80;;;7.63;73.40;96784.13;5012530;28;20060;-64
2021/05/30 04:27:51;;;;;;;4.85;4.20;;;9.30;75.60;;;7.65;74.30;96787.41;4982614;28;20041;-65
2021/05/30 04:30:18;;;;;;;5.05;4.05;;;9.30;75.60;;;7.68;73.97;96787.09;5010558;28;20042;-65
2021/05/30 04:32:44;;;;;;;4.45;4.03;;;9.40;75.60;;;7.70;73.57;96774.69;5019333;28;20624;-65
2021/05/30 04:35:10;;;;;;;7.60;4.70;;;9.30;75.70;;;7.75;73.97;96776.84;4989439;28;20034;-65
2021/05/30 04:37:36;;;;;;;5.15;3.95;;;9.40;75.60;;;7.77;73.75;96775.72;5021682;28;20037;-65
2021/05/30 04:40:02;;;;;;;6.50;4.47;;;9.50;75.80;;;7.80;74.25;96775.41;5015383;28;20060;-65
2021/05/30 04:42:28;;;;;;;6.55;4.60;;;9.50;76.10;;;7.84;74.21;96775.91;4991591;28;20042;-64
2021/05/30 04:44:54;;;;;;;8.18;4.93;;;9.60;75.90;;;7.88;74.10;96778.06;5020511;28;20053;-65
2021/05/30 04:47:19;;;;;;;6.00;4.43;;;9.60;75.80;;;7.96;74.44;96779.91;4994311;28;20022;-65
2021/05/30 04:49:45;;;;;;;6.43;5.03;;;9.70;75.80;;;8.03;74.35;96774.88;5004748;28;20045;-64
2021/05/30 04:52:11;;;;;;;5.38;4.50;;;9.80;75.70;;;8.09;74.29;96774.22;4980681;28;20107;-64
2021/05/30 04:54:37;;;;;;;9.18;5.03;;;9.90;75.80;;;8.15;74.24;96773.63;5024859;28;20036;-65
2021/05/30 04:57:04;;;;;;;6.57;5.07;;;10.00;75.80;;;8.22;74.07;96779.88;4991196;28;20025;-64
2021/05/30 04:59:30;;;;;;;6.55;4.90;;;10.10;75.70;;;8.29;74.76;96776.44;4990091;28;20583;-64
2021/05/30 05:01:56;;;;;;;6.55;4.93;;;10.10;75.70;;;8.34;74.33;96768.13;5011415;28;20029;-65
2021/05/30 05:04:21;;;;;;;6.43;4.85;;;10.20;75.70;;;8.42;74.28;96770.00;4998287;28;20044;-65
2021/05/30 05:06:47;;;;;;;5.53;4.82;;;10.30;75.60;;;8.49;74.62;96777.06;4993413;28;20034;-64
2021/05/30 05:09:13;;;;;;;8.35;5.45;;;10.40;75.70;;;8.58;74.70;96775.25;4986106;28;20476;-65
2021/05/30 05:11:39;;;;;;;8.57;5.65;;;10.50;75.70;;;8.68;74.71;96770.72;5006702;28;20434;-65
2021/05/30 05:14:05;;;;;;;6.55;5.15;;;10.60;75.40;;;8.77;74.59;96768.91;4984079;28;20044;-65
2021/05/30 05:16:31;;;;;;;8.38;5.28;;;10.70;74.90;;;8.88;74.89;96771.25;5004108;28;20034;-64
2021/05/30 05:18:57;;;;;;;7.32;5.90;;;10.90;75.00;;;8.98;74.67;96773.72;4989106;28;20035;-64
2021/05/30 05:21:23;;;;;;;8.98;5.38;;;11.00;75.00;;;9.08;74.10;96767.34;4992620;28;20500;-64
2021/05/30 05:23:48;;;;;;;8.05;4.75;;;11.10;74.50;;;9.19;74.32;96774.88;4998706;28;20052;-64
2021/05/30 05:26:14;;;;;;;9.20;5.05;;;11.20;74.40;;;9.31;74.46;96774.56;5008826;28;20057;-65
2021/05/30 05:28:40;;;;;;;7.82;5.10;;;11.40;73.60;;;9.41;74.58;96778.66;4992690;28;20041;-64
2021/05/30 05:31:06;;;;;;;6.07;5.25;;;11.60;73.20;;;9.55;73.94;96777.19;5019406;28;20037;-64
2021/05/30 05:33:32;;;;;;;5.95;4.70;;;11.70;72.30;;;9.67;73.49;96778.47;4995869;28;20034;-64
2021/05/30 05:35:57;;;;;;;7.82;4.60;;;11.90;70.80;;;9.79;73.52;96771.06;4993211;28;20553;-65
2021/05/30 05:38:23;;;;;;;5.72;4.38;;;12.00;70.10;;;9.93;72.65;96772.16;5010052;28;20589;-64
2021/05/30 05:40:49;;;;;;;6.25;4.45;;;12.20;69.30;;;10.04;72.55;96769.19;5003156;28;20025;-64
2021/05/30 05:43:15;;;;;;;6.35;4.75;;;12.40;68.40;;;10.18;71.91;96778.97;5013515;28;20095;-64
2021/05/30 05:45:40;;;;;;;6.30;4.40;;;12.50;69.20;;;10.33;71.77;96774.69;5012931;28;20189;-63
2021/05/30 05:48:15;;;;;;;6.32;4.72;;;12.70;68.50;;;10.46;71.19;96774.16;5016050;28;20512;-64
2021/05/30 05:50:41;;;;;;;6.47;5.00;;;13.00;66.90;;;10.63;71.21;96767.00;4982658;28;20025;-64
2021/05/30 05:53:06;;;;;;;12.35;7.40;;;13.10;66.60;;;10.77;71.69;96771.53;5015386;28;20045;-63
2021/05/30 05:55:34;;;;;;;10.15;6.15;;;13.40;65.30;;;10.93;69.57;96770.63;5029901;28;20064;-64
2021/05/30 05:57:59;;;;;;;13.82;8.70;;;13.40;64.10;;;11.07;70.33;96769.03;5015261;28;20552;-65
2021/05/30 06:00:25;;;;;;;12.60;9.00;;;13.60;63.90;;;11.21;70.04;96770.91;4984386;28;20035;-67
2021/05/30 06:02:51;;;;;;;31.23;21.15;;;13.90;63.10;;;11.37;69.60;96770.78;4969350;28;20074;-65
2021/05/30 06:05:19;;;;;;;13.77;9.68;;;14.10;62.00;;;11.51;68.33;96769.16;5006206;28;20039;-67
2021/05/30 06:07:50;;;;;;;12.20;7.50;;;14.20;61.10;;;11.66;67.67;96781.38;5001420;28;20049;-65
2021/05/30 06:10:16;;;;;;;;;;;14.40;60.80;;;11.82;66.88;96777.81;5023083;28;20116;-64
2021/05/30 06:12:42;;;;;;;8.50;6.82;;;14.60;61.10;;;11.96;68.14;96779.63;4981036;28;20322;-69
2021/05/30 06:15:09;;;;;;;6.88;4.78;;;14.80;60.50;;;12.15;68.11;96777.47;5008141;28;20047;-68
2021/05/30 06:17:35;;;;;;;6.47;4.65;;;15.10;59.80;;;12.31;67.18;96779.09;5015892;28;20520;-66
2021/05/30 06:20:00;;;;;;;13.43;8.68;;;15.20;58.40;;;12.50;66.89;96781.19;4978716;28;20068;-65
2021/05/30 06:22:27;;;;;;;10.50;6.85;;;15.60;58.30;;;12.69;66.88;96779.81;4990042;28;20084;-65
2021/05/30 06:24:53;;;;;;;11.32;7.22;;;16.00;56.90;;;12.86;66.20;96784.66;4992815;28;20477;-65
2021/05/30 06:27:20;;;;;;;13.10;9.32;;;16.40;55.50;;;13.02;66.13;96785.44;5006372;28;20038;-65
2021/05/30 06:29:46;;;;;;;7.78;5.70;;;16.50;54.40;;;13.17;65.97;96781.78;4976034;28;20030;-65
2021/05/30 06:32:11;;;;;;;11.77;8.95;;;16.60;55.20;;;13.34;65.59;96779.69;5001442;28;20038;-67
2021/05/30 06:34:37;;;;;;;11.05;8.75;;;16.60;54.70;;;13.54;65.19;96769.28;5010928;28;20445;-66
2021/05/30 06:37:03;;;;;;;7.38;5.57;;;16.90;54.20;;;13.73;64.68;96773.09;4975094;28;20577;-65
2021/05/30 06:39:29;;;;;;;5.95;4.40;;;17.10;53.20;;;13.93;65.07;96771.41;5010469;28;20022;-65
2021/05/30 06:41:55;;;;;;;8.93;6.78;;;17.40;53.40;;;14.13;64.53;96774.19;4995988;28;20052;-64
2021/05/30 06:44:21;;;;;;;8.27;5.97;;;17.50;53.20;;;14.29;63.62;96773.06;4978645;28;20128;-64
2021/05/30 06:46:47;;;;;;;6.28;4.70;;;17.60;51.60;;;14.46;62.88;96774.38;4974968;28;20124;-64
2021/05/30 06:49:12;;;;;;;7.00;4.72;;;17.70;50.60;;;14.64;61.77;96765.91;4996854;28;20045;-65
2021/05/30 06:51:38;;;;;;;17.17;12.02;;;18.10;50.40;;;14.83;61.28;96767.00;5007674;28;20061;-66
2021/05/30 06:54:05;;;;;;;10.93;6.72;;;18.20;50.30;;;14.99;61.51;96758.72;5011685;28;20034;-66
2021/05/30 06:56:31;;;;;;;9.63;6.47;;;18.40;48.80;;;15.13;60.80;96765.66;4974444;28;20045;-65
2021/05/30 06:58:57;;;;;;;8.13;5.70;;;18.40;49.40;;;15.29;59.87;96765.28;5002114;28;20042;-65
2021/05/30 07:01:23;;;;;;;9.77;6.63;;;18.60;48.20;;;15.42;60.22;96759.19;4974728;28;20126;-65
2021/05/30 07:03:49;;;;;;;9.40;5.60;;;19.00;47.10;;;15.57;58.87;96757.13;4993635;28;20034;-66
2021/05/30 07:06:16;;;;;;;7.22;4.93;;;19.30;46.20;;;15.70;58.21;96761.66;5000588;28;20033;-66
2021/05/30 07:08:42;;;;;;;6.30;4.85;;;19.30;46.00;;;15.80;57.91;96762.03;4995927;28;20437;-67
2021/05/30 07:11:08;;;;;;;6.80;4.75;;;19.40;45.00;;;15.94;58.07;96765.53;5005655;28;20030;-65
2021/05/30 07:13:33;;;;;;;6.93;5.00;;;19.70;44.70;;;16.07;57.86;96756.69;5002708;28;20033;-71
2021/05/30 07:15:59;;;;;;;6.40;4.80;;;19.90;44.90;;;16.24;58.12;96760.56;5013881;28;20045;-70
2021/05/30 07:18:25;;;;;;;8.68;5.15;;;20.20;45.40;;;16.37;57.72;96760.53;4990328;28;20038;-71
2021/05/30 07:20:52;;;;;;;6.07;4.57;;;20.10;44.00;;;16.48;56.57;96769.66;5012184;28;20717;-71
2021/05/30 07:23:21;;;;;;;9.27;4.85;;;20.10;44.80;;;16.57;56.56;96763.13;5007604;28;20030;-71
2021/05/30 07:25:48;;;;;;;7.35;4.85;;;20.10;44.30;;;16.66;56.03;96756.56;4994566;28;20026;-71
2021/05/30 07:28:14;;;;;;;6.60;4.13;;;20.40;43.50;;;16.82;56.11;96757.94;4983466;28;20061;-69
2021/05/30 07:30:40;;;;;;;8.32;5.68;;;20.80;43.80;;;17.01;55.07;96756.22;4993646;28;20064;-67
2021/05/30 07:33:05;;;;;;;11.30;6.35;;;21.00;41.50;;;17.15;54.65;96753.22;4992994;28;20046;-68
2021/05/30 07:35:31;;;;;;;11.48;8.18;;;21.20;40.70;;;17.31;54.22;96756.41;5001197;28;20061;-71
2021/05/30 07:37:58;;;;;;;15.20;9.43;;;21.40;41.30;;;17.52;54.10;96750.75;4992643;28;20511;-70
2021/05/30 07:40:24;;;;;;;10.90;4.25;;;21.60;39.00;;;17.65;52.41;96749.81;4977267;28;20172;-70
2021/05/30 07:42:50;;;;;;;6.05;3.95;;;22.00;38.10;;;17.81;52.82;96756.47;5006443;28;20087;-67
2021/05/30 07:45:17;;;;;;;7.15;4.00;;;22.20;37.90;;;17.94;51.79;96751.84;4995496;28;20512;-68
2021/05/30 07:47:42;;;;;;;6.22;4.53;;;22.30;37.50;;;18.13;52.48;96750.03;5013223;28;20041;-68
2021/05/30 07:50:09;;;;;;;4.95;3.67;;;22.60;37.80;;;18.31;51.31;96739.38;5013239;28;20092;-70
2021/05/30 07:52:35;;;;;;;5.95;3.80;;;22.60;37.30;;;18.51;51.39;96749.00;4990675;28;20066;-70
2021/05/30 07:55:00;;;;;;;6.15;3.83;;;23.00;37.60;;;18.73;50.96;96741.38;4990042;28;20030;-68
2021/05/30 07:57:26;;;;;;;6.10;3.30;;;23.20;36.50;;;18.83;49.26;96741.66;4984168;28;20460;-67
2021/05/30 07:59:52;;;;;;;6.03;4.55;;;22.80;34.40;;;18.90;49.41;96732.53;5022688;28;20115;-69
2021/05/30 08:02:18;;;;;;;7.95;3.40;;;23.10;34.80;;;19.07;49.60;96731.91;5017336;28;20090;-69
2021/05/30 08:04:44;;;;;;;5.50;3.58;;;23.10;35.80;;;19.05;49.08;96728.66;4993058;28;20046;-72
2021/05/30 08:07:10;;;;;;;6.13;4.30;;;22.30;37.30;;;19.02;48.74;96726.44;4977208;28;20038;-74
2021/05/30 08:09:35;;;;;;;13.20;8.30;;;22.70;36.30;;;19.10;48.58;96731.47;4985434;28;20029;-64
2021/05/30 08:12:01;;;;;;;9.20;5.53;;;22.50;35.80;;;19.02;47.76;96731.78;5019532;28;20038;-64
2021/05/30 08:14:28;;;;;;;4.65;2.85;;;21.90;36.20;;;19.05;47.53;96736.66;4989733;28;20030;-69
2021/05/30 08:16:53;;;;;;;9.27;7.07;;;22.70;34.00;;;19.26;46.06;96725.47;5003984;28;20457;-68
2021/05/30 08:19:19;;;;;;;7.32;5.30;;;23.20;32.90;;;19.53;45.94;96725.88;4989516;28;20070;-68
2021/05/30 08:21:45;;;;;;;2.90;2.00;;;23.70;30.50;;;19.78;45.38;96731.03;4973538;28;20030;-68
2021/05/30 08:24:11;;;;;;;3.75;2.55;;;23.80;30.70;;;20.07;44.21;96727.44;4959304;28;20085;-68
2021/05/30 08:26:39;;;;;;;3.97;2.15;;;24.20;29.70;;;20.30;42.11;96728.44;4941956;28;20498;-68
2021/05/30 08:29:05;;;;;;;3.97;2.38;;;23.90;30.10;;;20.40;42.96;96732.19;4989500;28;20046;-68
2021/05/30 08:31:31;;;;;;;4.78;2.45;;;23.80;30.90;;;20.43;43.25;96730.91;4973690;28;20447;-68
2021/05/30 08:33:56;;;;;;;5.15;2.40;;;23.30;31.80;;;20.26;42.41;96727.31;4973898;28;20038;-68
2021/05/30 08:36:22;;;;;;;4.57;2.63;;;22.50;32.20;;;20.02;41.69;96727.31;4964815;28;20568;-67
2021/05/30 08:38:48;;;;;;;3.42;2.50;;;22.10;32.90;;;19.85;40.93;96734.41;4973717;28;20050;-68
2021/05/30 08:41:14;;;;;;;5.20;2.58;;;22.10;33.40;;;19.70;41.41;96726.06;5008084;28;20103;-68
2021/05/30 08:43:39;;;;;;;4.00;2.15;;;21.70;33.30;;;19.50;40.51;96729.81;4976620;28;20034;-68
2021/05/30 08:46:05;;;;;;;2.72;1.98;;;22.00;31.30;;;19.57;40.74;96719.06;5005410;28;20054;-68
2021/05/30 08:48:31;;;;;;;3.22;1.92;;;22.60;31.00;;;19.69;40.50;96727.06;4973173;28;20030;-68
2021/05/30 08:51:06;;;;;;;4.05;2.10;;;22.50;30.50;;;19.65;39.93;96723.25;4957200;28;20027;-69
2021/05/30 08:53:34;;;;;;;4.63;2.08;;;22.50;30.40;;;19.78;40.12;96728.38;4974486;28;20066;-69
2021/05/30 08:56:00;;;;;;;5.72;3.00;;;23.10;31.00;;;19.99;39.60;96714.44;4998604;28;20062;-68
2021/05/30 08:58:37;;;;;;;4.90;2.70;;;23.50;30.40;;;20.33;38.11;96714.63;4988704;28;20030;-69
2021/05/30 09:01:27;;;;;;;5.63;3.35;;;24.10;30.80;;;20.65;38.65;96713.19;4988964;28;20030;-68
2021/05/30 09:04:05;;;;;;;3.40;1.88;;;24.50;29.70;;;20.95;36.94;96707.59;4985822;28;20072;-69
2021/05/30 09:06:30;;;;;;;3.10;1.90;;;24.50;28.80;;;21.08;38.67;96712.66;4988727;28;20038;-69
2021/05/30 09:08:56;;;;;;;3.28;1.90;;;24.30;25.80;;;21.00;37.52;96714.91;4988887;28;20023;-69
2021/05/30 09:11:40;;;;;;;4.70;2.20;;;23.60;26.90;;;20.82;34.71;96712.41;5004872;28;20034;-69
2021/05/30 09:14:10;;;;;;;3.25;1.92;;;23.00;29.10;;;20.61;37.48;96717.38;4989038;28;20043;-67
2021/05/30 09:17:07;;;;;;;5.60;1.90;;;23.10;29.20;;;20.47;33.44;96721.38;4988873;28;20030;-68
2021/05/30 09:19:52;;;;;;;3.88;2.40;;;22.80;28.50;;;20.52;34.12;96713.44;4989355;28;20391;-67
2021/05/30 09:22:36;;;;;;;13.60;9.05;;;23.50;27.60;;;20.56;34.84;96719.94;4972208;28;20049;-67
2021/05/30 09:25:21;;;;;;;3.63;2.50;;;23.40;28.90;;;20.80;36.67;96699.28;4973951;28;20497;-68
2021/05/30 09:28:02;;;;;;;4.30;2.92;;;24.00;30.40;;;21.11;36.00;96706.03;4973592;28;20034;-68
2021/05/30 09:30:38;;;;;;;4.35;3.42;;;24.60;29.80;;;21.41;35.70;96697.72;4973735;28;20038;-68
2021/05/30 09:33:14;;;;;;;3.67;2.78;;;25.00;27.60;;;21.71;34.67;96700.06;4988669;28;20046;-67
2021/05/30 09:35:39;;;;;;;4.47;2.92;;;25.30;27.30;;;22.01;37.44;96705.88;4973646;28;20047;-68
2021/05/30 09:38:08;;;;;;;16.40;7.20;;;25.90;29.30;;;22.32;35.81;96700.97;5004842;28;20502;-68
2021/05/30 09:40:38;;;;;;;6.32;3.33;;;26.10;26.80;;;22.61;34.57;96699.72;4981607;28;20061;-68
2021/05/30 09:43:09;;;;;;;4.90;2.40;;;26.30;26.70;;;22.87;34.33;96694.69;4973551;28;20034;-67
2021/05/30 09:45:42;;;;;;;3.78;2.55;;;26.60;26.20;;;23.14;33.11;96698.19;4973259;28;20101;-68
2021/05/30 09:48:18;;;;;;;4.20;2.25;;;26.70;24.60;;;23.21;32.67;96708.69;4988687;28;20030;-68
2021/05/30 09:51:02;;;;;;;8.77;5.60;;;26.70;25.50;;;23.42;34.65;96705.13;4972305;28;20027;-67
2021/05/30 09:53:33;;;;;;;14.85;11.65;;;27.40;24.90;;;23.64;34.14;96701.59;4991254;28;20041;-67
2021/05/30 09:55:59;;;;;;;5.78;3.83;;;27.30;24.60;;;23.90;34.55;96707.94;4993215;28;20038;-67
2021/05/30 09:58:25;;;;;;;4.45;2.80;;;28.10;24.20;;;24.29;34.83;96706.59;5007712;28;20030;-67
2021/05/30 10:00:50;;;;;;;6.00;2.75;;;29.00;24.10;;;24.74;34.95;96705.19;4991257;28;20113;-67
2021/05/30 10:03:17;;;;;;;3.10;1.85;;;29.30;21.50;;;25.09;34.01;96696.41;5001955;28;20040;-67
2021/05/30 10:05:43;;;;;;;3.25;2.03;;;29.50;22.00;;;25.56;33.15;96698.06;4972156;28;20058;-68
2021/05/30 10:08:09;;;;;;;6.47;2.10;;;29.80;21.20;;;26.08;32.03;96691.59;4988451;28;20538;-68
2021/05/30 10:10:34;;;;;;;2.83;2.05;;;30.20;21.80;;;26.32;31.64;96684.50;4987986;28;20494;-68
2021/05/30 10:13:01;;;;;;;3.50;1.98;;;30.00;21.40;;;26.35;31.04;96684.00;4988386;28;20042;-67
2021/05/30 10:15:27;;;;;;;2.83;1.90;;;30.10;21.40;;;26.69;30.75;96686.81;4972303;28;20069;-68
2021/05/30 10:17:53;;;;;;;3.45;1.90;;;30.90;20.40;;;27.18;30.29;96687.94;4974368;28;20030;-68
2021/05/30 10:20:23;;;;;;;5.22;2.00;;;31.20;19.80;;;27.53;27.29;96684.97;4961366;28;20038;-68
2021/05/30 10:22:52;;;;;;;2.60;1.73;;;31.90;18.40;;;27.93;27.22;96689.22;4976191;28;20422;-67
2021/05/30 10:25:29;;;;;;;2.60;1.98;;;32.50;18.00;;;27.84;26.04;96690.97;4976300;28;20034;-68